sensor_id;sensor_type;location;lat;lon;timestamp;P1;durP1;ratioP1;P2;durP2;ratioP2
19623;SDS011;9959;49.798;9.928;2023-12-20T00:02:02;25.02;;;12.38;;
19623;SDS011;9959;49.798;9.928;2023-12-20T00:04:30;24.83;;;12.70;;
19623;SDS011;9959;49.798;9.928;2023-12-20T00:06:57;26.50;;;12.35;;
19623;SDS011;9959;49.798;9.928;2023-12-20T00:09:26;23.45;;;11.88;;
19623;SDS011;9959;49.798;9.928;2023-12-20T00:11:52;23.85;;;11.73;;
19623;SDS011;9959;49.798;9.928;2023-12-20T00:14:19;23.88;;;11.60;;
19623;SDS011;9959;49.798;9.928;2023-12-20T00:16:46;26.45;;;11.80;;
19623;SDS011;9959;49.798;9.928;2023-12-20T00:19:13;28.25;;;11.48;;
19623;SDS011;9959;49.798;9.928;2023-12-20T00:21:40;19.25;;;9.93;;
19623;SDS011;9959;49.798;9.928;2023-12-20T00:24:07;20.98;;;10.57;;
19623;SDS011;9959;49.798;9.928;2023-12-20T00:26:37;17.85;;;9.40;;
19623;SDS011;9959;49.798;9.928;2023-12-20T00:29:04;20.80;;;9.68;;
19623;SDS011;9959;49.798;9.928;2023-12-20T00:31:31;19.50;;;9.10;;
19623;SDS011;9959;49.798;9.928;2023-12-20T00:33:58;20.60;;;8.52;;
19623;SDS011;9959;49.798;9.928;2023-12-20T00:36:26;16.38;;;8.38;;
19623;SDS011;9959;49.798;9.928;2023-12-20T00:38:55;14.23;;;7.88;;
19623;SDS011;9959;49.798;9.928;2023-12-20T00:41:22;10.35;;;6.43;;
19623;SDS011;9959;49.798;9.928;2023-12-20T00:43:49;9.75;;;5.57;;
19623;SDS011;9959;49.798;9.928;2023-12-20T00:46:15;8.80;;;4.85;;
19623;SDS011;9959;49.798;9.928;2023-12-20T00:48:42;12.02;;;4.53;;
19623;SDS011;9959;49.798;9.928;2023-12-20T00:51:12;7.55;;;4.32;;
19623;SDS011;9959;49.798;9.928;2023-12-20T00:53:39;10.68;;;4.63;;
19623;SDS011;9959;49.798;9.928;2023-12-20T00:56:06;5.63;;;3.53;;
19623;SDS011;9959;49.798;9.928;2023-12-20T00:58:33;6.40;;;2.95;;
19623;SDS011;9959;49.798;9.928;2023-12-20T01:01:03;5.45;;;3.13;;
19623;SDS011;9959;49.798;9.928;2023-12-20T01:03:30;5.00;;;2.70;;
19623;SDS011;9959;49.798;9.928;2023-12-20T01:05:57;5.00;;;3.10;;
19623;SDS011;9959;49.798;9.928;2023-12-20T01:08:24;5.63;;;2.30;;
19623;SDS011;9959;49.798;9.928;2023-12-20T01:10:51;6.10;;;2.35;;
19623;SDS011;9959;49.798;9.928;2023-12-20T01:13:18;1.98;;;1.60;;
19623;SDS011;9959;49.798;9.928;2023-12-20T01:15:45;3.15;;;2.05;;
19623;SDS011;9959;49.798;9.928;2023-12-20T01:18:14;2.60;;;1.75;;
19623;SDS011;9959;49.798;9.928;2023-12-20T01:20:41;2.38;;;1.70;;
19623;SDS011;9959;49.798;9.928;2023-12-20T01:23:08;4.18;;;1.65;;
19623;SDS011;9959;49.798;9.928;2023-12-20T01:25:35;1.88;;;1.45;;
19623;SDS011;9959;49.798;9.928;2023-12-20T01:28:04;1.58;;;1.25;;
19623;SDS011;9959;49.798;9.928;2023-12-20T01:30:32;3.83;;;1.75;;
19623;SDS011;9959;49.798;9.928;2023-12-20T01:32:59;2.03;;;1.30;;
19623;SDS011;9959;49.798;9.928;2023-12-20T01:35:27;5.00;;;1.55;;
19623;SDS011;9959;49.798;9.928;2023-12-20T01:37:54;1.40;;;1.20;;
19623;SDS011;9959;49.798;9.928;2023-12-20T01:40:24;1.95;;;1.40;;
19623;SDS011;9959;49.798;9.928;2023-12-20T01:43:01;2.28;;;1.20;;
19623;SDS011;9959;49.798;9.928;2023-12-20T01:45:34;1.10;;;0.90;;
19623;SDS011;9959;49.798;9.928;2023-12-20T01:48:01;2.03;;;1.20;;
19623;SDS011;9959;49.798;9.928;2023-12-20T01:50:30;1.42;;;1.00;;
19623;SDS011;9959;49.798;9.928;2023-12-20T01:53:01;0.98;;;0.80;;
19623;SDS011;9959;49.798;9.928;2023-12-20T01:55:29;2.83;;;0.90;;
19623;SDS011;9959;49.798;9.928;2023-12-20T01:57:59;1.10;;;1.00;;
19623;SDS011;9959;49.798;9.928;2023-12-20T02:00:27;1.40;;;1.10;;
19623;SDS011;9959;49.798;9.928;2023-12-20T02:02:58;1.10;;;1.00;;
19623;SDS011;9959;49.798;9.928;2023-12-20T02:05:29;4.72;;;1.00;;
19623;SDS011;9959;49.798;9.928;2023-12-20T02:07:57;2.40;;;1.20;;
19623;SDS011;9959;49.798;9.928;2023-12-20T02:10:25;1.63;;;0.90;;
19623;SDS011;9959;49.798;9.928;2023-12-20T02:12:53;1.63;;;1.10;;
19623;SDS011;9959;49.798;9.928;2023-12-20T02:15:20;0.98;;;0.90;;
19623;SDS011;9959;49.798;9.928;2023-12-20T02:17:47;2.03;;;1.00;;
19623;SDS011;9959;49.798;9.928;2023-12-20T02:20:15;1.00;;;1.00;;
19623;SDS011;9959;49.798;9.928;2023-12-20T02:22:42;0.95;;;0.90;;
19623;SDS011;9959;49.798;9.928;2023-12-20T02:25:09;1.20;;;0.95;;
19623;SDS011;9959;49.798;9.928;2023-12-20T02:27:42;1.13;;;0.90;;
19623;SDS011;9959;49.798;9.928;2023-12-20T02:30:10;0.98;;;0.98;;
19623;SDS011;9959;49.798;9.928;2023-12-20T02:32:39;1.65;;;1.17;;
19623;SDS011;9959;49.798;9.928;2023-12-20T02:35:06;1.20;;;1.10;;
19623;SDS011;9959;49.798;9.928;2023-12-20T02:37:33;1.10;;;1.00;;
19623;SDS011;9959;49.798;9.928;2023-12-20T02:40:00;1.33;;;0.90;;
19623;SDS011;9959;49.798;9.928;2023-12-20T02:42:27;1.25;;;1.15;;
19623;SDS011;9959;49.798;9.928;2023-12-20T02:44:54;3.00;;;1.15;;
19623;SDS011;9959;49.798;9.928;2023-12-20T02:47:21;1.13;;;1.02;;
19623;SDS011;9959;49.798;9.928;2023-12-20T02:49:48;1.02;;;0.80;;
19623;SDS011;9959;49.798;9.928;2023-12-20T02:52:15;1.00;;;0.90;;
19623;SDS011;9959;49.798;9.928;2023-12-20T02:54:43;1.30;;;1.20;;
19623;SDS011;9959;49.798;9.928;2023-12-20T02:57:10;1.55;;;1.23;;
19623;SDS011;9959;49.798;9.928;2023-12-20T02:59:36;1.08;;;0.98;;
19623;SDS011;9959;49.798;9.928;2023-12-20T03:02:03;1.42;;;0.98;;
19623;SDS011;9959;49.798;9.928;2023-12-20T03:04:30;1.75;;;1.05;;
19623;SDS011;9959;49.798;9.928;2023-12-20T03:06:58;1.10;;;1.00;;
19623;SDS011;9959;49.798;9.928;2023-12-20T03:09:25;1.77;;;1.10;;
19623;SDS011;9959;49.798;9.928;2023-12-20T03:11:51;1.38;;;1.10;;
19623;SDS011;9959;49.798;9.928;2023-12-20T03:14:18;1.70;;;0.88;;
19623;SDS011;9959;49.798;9.928;2023-12-20T03:16:51;0.90;;;0.90;;
19623;SDS011;9959;49.798;9.928;2023-12-20T03:19:18;2.47;;;1.20;;
19623;SDS011;9959;49.798;9.928;2023-12-20T03:21:46;1.15;;;0.90;;
19623;SDS011;9959;49.798;9.928;2023-12-20T03:24:12;1.52;;;1.20;;
19623;SDS011;9959;49.798;9.928;2023-12-20T03:26:39;1.10;;;0.80;;
19623;SDS011;9959;49.798;9.928;2023-12-20T03:29:06;1.45;;;1.05;;
19623;SDS011;9959;49.798;9.928;2023-12-20T03:31:33;2.75;;;1.10;;
19623;SDS011;9959;49.798;9.928;2023-12-20T03:34:01;1.75;;;0.98;;
19623;SDS011;9959;49.798;9.928;2023-12-20T03:36:28;1.23;;;0.90;;
19623;SDS011;9959;49.798;9.928;2023-12-20T03:38:55;1.10;;;1.00;;
19623;SDS011;9959;49.798;9.928;2023-12-20T03:41:24;1.52;;;0.95;;
19623;SDS011;9959;49.798;9.928;2023-12-20T03:43:51;1.10;;;1.00;;
19623;SDS011;9959;49.798;9.928;2023-12-20T03:46:18;1.35;;;1.20;;
19623;SDS011;9959;49.798;9.928;2023-12-20T03:48:45;1.13;;;0.98;;
19623;SDS011;9959;49.798;9.928;2023-12-20T03:51:12;1.10;;;1.00;;
19623;SDS011;9959;49.798;9.928;2023-12-20T03:53:39;1.10;;;1.00;;
19623;SDS011;9959;49.798;9.928;2023-12-20T03:56:07;1.23;;;0.98;;
19623;SDS011;9959;49.798;9.928;2023-12-20T03:58:34;1.27;;;1.17;;
19623;SDS011;9959;49.798;9.928;2023-12-20T04:01:09;3.50;;;0.98;;
19623;SDS011;9959;49.798;9.928;2023-12-20T04:03:40;1.55;;;1.08;;
19623;SDS011;9959;49.798;9.928;2023-12-20T04:06:07;1.85;;;1.10;;
19623;SDS011;9959;49.798;9.928;2023-12-20T04:08:34;1.42;;;1.00;;
19623;SDS011;9959;49.798;9.928;2023-12-20T04:11:05;1.20;;;1.00;;
19623;SDS011;9959;49.798;9.928;2023-12-20T04:13:35;1.30;;;0.95;;
19623;SDS011;9959;49.798;9.928;2023-12-20T04:16:06;1.40;;;0.98;;
19623;SDS011;9959;49.798;9.928;2023-12-20T04:18:33;1.40;;;1.08;;
19623;SDS011;9959;49.798;9.928;2023-12-20T04:21:06;2.08;;;1.20;;
19623;SDS011;9959;49.798;9.928;2023-12-20T04:23:36;1.80;;;1.08;;
19623;SDS011;9959;49.798;9.928;2023-12-20T04:26:06;2.10;;;1.20;;
19623;SDS011;9959;49.798;9.928;2023-12-20T04:28:36;1.17;;;1.08;;
19623;SDS011;9959;49.798;9.928;2023-12-20T04:31:06;1.55;;;1.10;;
19623;SDS011;9959;49.798;9.928;2023-12-20T04:33:34;1.45;;;1.05;;
19623;SDS011;9959;49.798;9.928;2023-12-20T04:36:04;1.55;;;0.93;;
19623;SDS011;9959;49.798;9.928;2023-12-20T04:38:37;1.27;;;1.17;;
19623;SDS011;9959;49.798;9.928;2023-12-20T04:41:05;1.45;;;1.00;;
19623;SDS011;9959;49.798;9.928;2023-12-20T04:43:32;1.35;;;1.02;;
19623;SDS011;9959;49.798;9.928;2023-12-20T04:45:59;1.95;;;1.00;;
19623;SDS011;9959;49.798;9.928;2023-12-20T04:48:26;1.67;;;1.25;;
19623;SDS011;9959;49.798;9.928;2023-12-20T04:50:53;1.42;;;1.10;;
19623;SDS011;9959;49.798;9.928;2023-12-20T04:53:23;1.73;;;1.50;;
19623;SDS011;9959;49.798;9.928;2023-12-20T04:55:50;1.70;;;1.15;;
19623;SDS011;9959;49.798;9.928;2023-12-20T04:58:17;1.90;;;1.58;;
19623;SDS011;9959;49.798;9.928;2023-12-20T05:00:44;2.10;;;1.70;;
19623;SDS011;9959;49.798;9.928;2023-12-20T05:03:11;1.42;;;1.30;;
19623;SDS011;9959;49.798;9.928;2023-12-20T05:05:41;2.55;;;1.60;;
19623;SDS011;9959;49.798;9.928;2023-12-20T05:08:13;1.98;;;1.50;;
19623;SDS011;9959;49.798;9.928;2023-12-20T05:10:41;2.78;;;1.88;;
19623;SDS011;9959;49.798;9.928;2023-12-20T05:13:08;2.38;;;1.58;;
19623;SDS011;9959;49.798;9.928;2023-12-20T05:15:35;2.78;;;1.65;;
19623;SDS011;9959;49.798;9.928;2023-12-20T05:18:02;2.88;;;1.55;;
19623;SDS011;9959;49.798;9.928;2023-12-20T05:20:30;2.42;;;1.80;;
19623;SDS011;9959;49.798;9.928;2023-12-20T05:22:57;1.40;;;1.20;;
19623;SDS011;9959;49.798;9.928;2023-12-20T05:25:23;4.25;;;1.77;;
19623;SDS011;9959;49.798;9.928;2023-12-20T05:27:50;4.30;;;2.17;;
19623;SDS011;9959;49.798;9.928;2023-12-20T05:30:17;2.70;;;2.30;;
19623;SDS011;9959;49.798;9.928;2023-12-20T05:32:44;2.55;;;1.90;;
19623;SDS011;9959;49.798;9.928;2023-12-20T05:35:11;2.22;;;1.90;;
19623;SDS011;9959;49.798;9.928;2023-12-20T05:37:39;2.83;;;1.98;;
19623;SDS011;9959;49.798;9.928;2023-12-20T05:40:06;2.30;;;1.75;;
19623;SDS011;9959;49.798;9.928;2023-12-20T05:42:37;3.72;;;2.08;;
19623;SDS011;9959;49.798;9.928;2023-12-20T05:45:07;2.47;;;1.85;;
19623;SDS011;9959;49.798;9.928;2023-12-20T05:47:34;3.28;;;2.42;;
19623;SDS011;9959;49.798;9.928;2023-12-20T05:50:04;3.35;;;2.60;;
19623;SDS011;9959;49.798;9.928;2023-12-20T05:52:35;3.85;;;2.13;;
19623;SDS011;9959;49.798;9.928;2023-12-20T05:55:02;3.45;;;2.28;;
19623;SDS011;9959;49.798;9.928;2023-12-20T05:57:29;3.58;;;2.28;;
19623;SDS011;9959;49.798;9.928;2023-12-20T05:59:55;4.22;;;2.17;;
19623;SDS011;9959;49.798;9.928;2023-12-20T06:02:22;3.97;;;2.55;;
19623;SDS011;9959;49.798;9.928;2023-12-20T06:04:49;2.65;;;2.30;;
19623;SDS011;9959;49.798;9.928;2023-12-20T06:07:17;3.38;;;2.10;;
19623;SDS011;9959;49.798;9.928;2023-12-20T06:09:44;3.55;;;2.60;;
19623;SDS011;9959;49.798;9.928;2023-12-20T06:12:11;3.25;;;2.38;;
19623;SDS011;9959;49.798;9.928;2023-12-20T06:14:38;3.50;;;2.42;;
19623;SDS011;9959;49.798;9.928;2023-12-20T06:17:13;3.10;;;2.38;;
19623;SDS011;9959;49.798;9.928;2023-12-20T06:19:40;4.85;;;2.38;;
19623;SDS011;9959;49.798;9.928;2023-12-20T06:22:09;3.40;;;2.60;;
19623;SDS011;9959;49.798;9.928;2023-12-20T06:24:37;4.93;;;3.08;;
19623;SDS011;9959;49.798;9.928;2023-12-20T06:27:04;5.50;;;3.40;;
19623;SDS011;9959;49.798;9.928;2023-12-20T06:29:31;5.90;;;3.55;;
19623;SDS011;9959;49.798;9.928;2023-12-20T06:31:58;5.03;;;3.80;;
19623;SDS011;9959;49.798;9.928;2023-12-20T06:34:25;8.50;;;3.88;;
19623;SDS011;9959;49.798;9.928;2023-12-20T06:36:55;5.45;;;3.63;;
19623;SDS011;9959;49.798;9.928;2023-12-20T06:39:22;7.28;;;4.13;;
19623;SDS011;9959;49.798;9.928;2023-12-20T06:41:49;7.47;;;4.28;;
19623;SDS011;9959;49.798;9.928;2023-12-20T06:44:16;6.53;;;4.45;;
19623;SDS011;9959;49.798;9.928;2023-12-20T06:46:43;8.57;;;4.53;;
19623;SDS011;9959;49.798;9.928;2023-12-20T06:49:13;7.60;;;3.80;;
19623;SDS011;9959;49.798;9.928;2023-12-20T06:51:40;7.35;;;4.25;;
19623;SDS011;9959;49.798;9.928;2023-12-20T06:54:07;7.50;;;4.47;;
19623;SDS011;9959;49.798;9.928;2023-12-20T06:56:34;7.95;;;4.65;;
19623;SDS011;9959;49.798;9.928;2023-12-20T06:59:01;8.27;;;4.70;;
19623;SDS011;9959;49.798;9.928;2023-12-20T07:01:33;7.63;;;4.15;;
19623;SDS011;9959;49.798;9.928;2023-12-20T07:04:00;8.45;;;4.88;;
19623;SDS011;9959;49.798;9.928;2023-12-20T07:06:27;7.88;;;4.72;;
19623;SDS011;9959;49.798;9.928;2023-12-20T07:08:54;6.57;;;4.18;;
19623;SDS011;9959;49.798;9.928;2023-12-20T07:11:21;7.20;;;3.90;;
19623;SDS011;9959;49.798;9.928;2023-12-20T07:13:48;6.57;;;4.10;;
19623;SDS011;9959;49.798;9.928;2023-12-20T07:16:16;6.93;;;3.95;;
19623;SDS011;9959;49.798;9.928;2023-12-20T07:18:43;7.10;;;4.30;;
19623;SDS011;9959;49.798;9.928;2023-12-20T07:21:10;8.80;;;4.57;;
19623;SDS011;9959;49.798;9.928;2023-12-20T07:23:37;7.28;;;4.60;;
19623;SDS011;9959;49.798;9.928;2023-12-20T07:26:03;8.00;;;4.60;;
19623;SDS011;9959;49.798;9.928;2023-12-20T07:28:34;8.32;;;4.45;;
19623;SDS011;9959;49.798;9.928;2023-12-20T07:31:01;7.88;;;4.60;;
19623;SDS011;9959;49.798;9.928;2023-12-20T07:33:29;9.93;;;5.10;;
19623;SDS011;9959;49.798;9.928;2023-12-20T07:36:05;8.70;;;4.43;;
19623;SDS011;9959;49.798;9.928;2023-12-20T07:38:35;7.63;;;4.38;;
19623;SDS011;9959;49.798;9.928;2023-12-20T07:41:02;8.25;;;4.35;;
19623;SDS011;9959;49.798;9.928;2023-12-20T07:43:30;8.38;;;4.07;;
19623;SDS011;9959;49.798;9.928;2023-12-20T07:45:57;7.25;;;4.63;;
19623;SDS011;9959;49.798;9.928;2023-12-20T07:48:24;9.85;;;5.00;;
19623;SDS011;9959;49.798;9.928;2023-12-20T07:50:51;10.65;;;4.32;;
19623;SDS011;9959;49.798;9.928;2023-12-20T07:53:21;12.88;;;4.55;;
19623;SDS011;9959;49.798;9.928;2023-12-20T07:55:48;8.23;;;3.90;;
19623;SDS011;9959;49.798;9.928;2023-12-20T07:58:15;11.57;;;3.92;;
19623;SDS011;9959;49.798;9.928;2023-12-20T08:00:42;8.90;;;3.90;;
19623;SDS011;9959;49.798;9.928;2023-12-20T08:03:09;8.73;;;4.30;;
19623;SDS011;9959;49.798;9.928;2023-12-20T08:05:36;10.02;;;4.50;;
19623;SDS011;9959;49.798;9.928;2023-12-20T08:08:06;10.73;;;5.05;;
19623;SDS011;9959;49.798;9.928;2023-12-20T08:10:33;11.00;;;4.45;;
19623;SDS011;9959;49.798;9.928;2023-12-20T08:13:01;8.77;;;3.75;;
19623;SDS011;9959;49.798;9.928;2023-12-20T08:15:28;10.38;;;4.40;;
19623;SDS011;9959;49.798;9.928;2023-12-20T08:17:55;10.95;;;4.10;;
19623;SDS011;9959;49.798;9.928;2023-12-20T08:20:21;13.98;;;4.00;;
19623;SDS011;9959;49.798;9.928;2023-12-20T08:23:02;7.22;;;3.22;;
19623;SDS011;9959;49.798;9.928;2023-12-20T08:25:29;9.65;;;4.05;;
19623;SDS011;9959;49.798;9.928;2023-12-20T08:27:56;7.82;;;3.13;;
19623;SDS011;9959;49.798;9.928;2023-12-20T08:30:23;8.85;;;3.60;;
19623;SDS011;9959;49.798;9.928;2023-12-20T08:32:50;19.95;;;4.22;;
19623;SDS011;9959;49.798;9.928;2023-12-20T08:35:17;10.35;;;3.17;;
19623;SDS011;9959;49.798;9.928;2023-12-20T08:37:45;12.15;;;3.60;;
19623;SDS011;9959;49.798;9.928;2023-12-20T08:40:12;10.02;;;3.28;;
19623;SDS011;9959;49.798;9.928;2023-12-20T08:42:40;12.65;;;3.63;;
19623;SDS011;9959;49.798;9.928;2023-12-20T08:45:07;8.57;;;2.40;;
19623;SDS011;9959;49.798;9.928;2023-12-20T08:47:34;11.30;;;2.63;;
19623;SDS011;9959;49.798;9.928;2023-12-20T08:50:03;11.20;;;3.15;;
19623;SDS011;9959;49.798;9.928;2023-12-20T08:52:30;12.18;;;2.35;;
19623;SDS011;9959;49.798;9.928;2023-12-20T08:54:57;5.07;;;2.15;;
19623;SDS011;9959;49.798;9.928;2023-12-20T08:57:24;5.80;;;1.77;;
19623;SDS011;9959;49.798;9.928;2023-12-20T08:59:51;8.02;;;2.47;;
19623;SDS011;9959;49.798;9.928;2023-12-20T09:02:18;9.05;;;2.85;;
19623;SDS011;9959;49.798;9.928;2023-12-20T09:04:45;5.90;;;2.40;;
19623;SDS011;9959;49.798;9.928;2023-12-20T09:07:25;7.75;;;2.47;;
19623;SDS011;9959;49.798;9.928;2023-12-20T09:09:53;13.27;;;2.28;;
19623;SDS011;9959;49.798;9.928;2023-12-20T09:12:20;6.65;;;2.33;;
19623;SDS011;9959;49.798;9.928;2023-12-20T09:14:48;8.48;;;2.20;;
19623;SDS011;9959;49.798;9.928;2023-12-20T09:17:16;3.88;;;2.03;;
19623;SDS011;9959;49.798;9.928;2023-12-20T09:19:43;5.82;;;2.10;;
19623;SDS011;9959;49.798;9.928;2023-12-20T09:22:11;5.25;;;2.05;;
19623;SDS011;9959;49.798;9.928;2023-12-20T09:24:39;6.40;;;2.03;;
19623;SDS011;9959;49.798;9.928;2023-12-20T09:27:06;4.63;;;2.03;;
19623;SDS011;9959;49.798;9.928;2023-12-20T09:29:34;9.68;;;2.10;;
19623;SDS011;9959;49.798;9.928;2023-12-20T09:32:01;5.35;;;2.10;;
19623;SDS011;9959;49.798;9.928;2023-12-20T09:34:28;8.40;;;2.17;;
19623;SDS011;9959;49.798;9.928;2023-12-20T09:36:56;6.10;;;1.92;;
19623;SDS011;9959;49.798;9.928;2023-12-20T09:39:23;11.48;;;2.00;;
19623;SDS011;9959;49.798;9.928;2023-12-20T09:42:00;9.27;;;2.10;;
19623;SDS011;9959;49.798;9.928;2023-12-20T09:44:29;5.68;;;1.85;;
19623;SDS011;9959;49.798;9.928;2023-12-20T09:46:57;7.53;;;1.63;;
19623;SDS011;9959;49.798;9.928;2023-12-20T09:49:24;7.05;;;1.80;;
19623;SDS011;9959;49.798;9.928;2023-12-20T09:51:54;7.20;;;2.00;;
19623;SDS011;9959;49.798;9.928;2023-12-20T09:54:21;9.85;;;2.25;;
19623;SDS011;9959;49.798;9.928;2023-12-20T09:56:49;3.78;;;1.63;;
19623;SDS011;9959;49.798;9.928;2023-12-20T09:59:16;7.10;;;1.70;;
19623;SDS011;9959;49.798;9.928;2023-12-20T10:01:43;7.40;;;1.95;;
19623;SDS011;9959;49.798;9.928;2023-12-20T10:04:11;8.18;;;1.63;;
19623;SDS011;9959;49.798;9.928;2023-12-20T10:06:55;9.32;;;1.52;;
19623;SDS011;9959;49.798;9.928;2023-12-20T10:09:23;10.57;;;1.92;;
19623;SDS011;9959;49.798;9.928;2023-12-20T10:11:53;8.27;;;2.00;;
19623;SDS011;9959;49.798;9.928;2023-12-20T10:14:21;9.23;;;3.20;;
19623;SDS011;9959;49.798;9.928;2023-12-20T10:16:49;6.07;;;1.83;;
19623;SDS011;9959;49.798;9.928;2023-12-20T10:19:17;7.75;;;1.88;;
19623;SDS011;9959;49.798;9.928;2023-12-20T10:21:45;9.00;;;1.77;;
19623;SDS011;9959;49.798;9.928;2023-12-20T10:24:16;7.20;;;1.92;;
19623;SDS011;9959;49.798;9.928;2023-12-20T10:26:44;4.63;;;1.98;;
19623;SDS011;9959;49.798;9.928;2023-12-20T10:29:11;7.20;;;1.58;;
19623;SDS011;9959;49.798;9.928;2023-12-20T10:31:39;8.65;;;1.88;;
19623;SDS011;9959;49.798;9.928;2023-12-20T10:34:06;7.32;;;2.20;;
19623;SDS011;9959;49.798;9.928;2023-12-20T10:36:32;9.82;;;2.63;;
19623;SDS011;9959;49.798;9.928;2023-12-20T10:39:00;5.68;;;2.20;;
19623;SDS011;9959;49.798;9.928;2023-12-20T10:41:30;4.70;;;2.03;;
19623;SDS011;9959;49.798;9.928;2023-12-20T10:44:00;6.75;;;2.30;;
19623;SDS011;9959;49.798;9.928;2023-12-20T10:46:29;9.48;;;2.30;;
19623;SDS011;9959;49.798;9.928;2023-12-20T10:48:57;8.77;;;2.75;;
19623;SDS011;9959;49.798;9.928;2023-12-20T10:51:24;8.10;;;2.58;;
19623;SDS011;9959;49.798;9.928;2023-12-20T10:53:53;7.68;;;1.92;;
19623;SDS011;9959;49.798;9.928;2023-12-20T10:56:22;6.40;;;1.55;;
19623;SDS011;9959;49.798;9.928;2023-12-20T10:58:52;6.35;;;2.10;;
19623;SDS011;9959;49.798;9.928;2023-12-20T11:01:20;5.85;;;1.63;;
19623;SDS011;9959;49.798;9.928;2023-12-20T11:03:51;4.35;;;1.70;;
19623;SDS011;9959;49.798;9.928;2023-12-20T11:12:24;6.80;;;2.40;;
19623;SDS011;9959;49.798;9.928;2023-12-20T11:14:50;7.65;;;2.63;;
19623;SDS011;9959;49.798;9.928;2023-12-20T11:17:19;8.88;;;2.13;;
19623;SDS011;9959;49.798;9.928;2023-12-20T11:22:28;8.23;;;2.13;;
19623;SDS011;9959;49.798;9.928;2023-12-20T11:24:58;14.93;;;2.78;;
19623;SDS011;9959;49.798;9.928;2023-12-20T11:27:41;3.63;;;2.30;;
19623;SDS011;9959;49.798;9.928;2023-12-20T11:30:17;7.93;;;2.75;;
19623;SDS011;9959;49.798;9.928;2023-12-20T11:32:45;11.32;;;2.20;;
19623;SDS011;9959;49.798;9.928;2023-12-20T11:37:46;7.95;;;2.28;;
19623;SDS011;9959;49.798;9.928;2023-12-20T11:40:19;11.73;;;2.40;;
19623;SDS011;9959;49.798;9.928;2023-12-20T11:42:49;10.25;;;2.20;;
19623;SDS011;9959;49.798;9.928;2023-12-20T11:45:18;18.38;;;2.42;;
19623;SDS011;9959;49.798;9.928;2023-12-20T11:47:54;5.40;;;2.10;;
19623;SDS011;9959;49.798;9.928;2023-12-20T11:50:21;7.88;;;2.15;;
19623;SDS011;9959;49.798;9.928;2023-12-20T11:52:51;6.35;;;1.95;;
19623;SDS011;9959;49.798;9.928;2023-12-20T11:55:19;6.65;;;1.90;;
19623;SDS011;9959;49.798;9.928;2023-12-20T11:57:47;7.55;;;2.40;;
19623;SDS011;9959;49.798;9.928;2023-12-20T12:00:14;9.73;;;1.98;;
19623;SDS011;9959;49.798;9.928;2023-12-20T12:02:41;5.00;;;2.03;;
19623;SDS011;9959;49.798;9.928;2023-12-20T12:05:11;7.65;;;2.75;;
19623;SDS011;9959;49.798;9.928;2023-12-20T12:07:39;7.13;;;2.08;;
19623;SDS011;9959;49.798;9.928;2023-12-20T12:10:06;6.72;;;1.85;;
19623;SDS011;9959;49.798;9.928;2023-12-20T12:12:34;5.97;;;2.20;;
19623;SDS011;9959;49.798;9.928;2023-12-20T12:15:02;7.25;;;2.33;;
19623;SDS011;9959;49.798;9.928;2023-12-20T12:17:29;12.40;;;2.45;;
19623;SDS011;9959;49.798;9.928;2023-12-20T12:20:02;4.82;;;1.40;;
19623;SDS011;9959;49.798;9.928;2023-12-20T12:22:32;11.38;;;2.35;;
19623;SDS011;9959;49.798;9.928;2023-12-20T12:25:09;6.70;;;1.85;;
19623;SDS011;9959;49.798;9.928;2023-12-20T12:27:41;7.43;;;1.60;;
19623;SDS011;9959;49.798;9.928;2023-12-20T12:30:09;8.98;;;1.85;;
19623;SDS011;9959;49.798;9.928;2023-12-20T12:32:36;4.95;;;2.28;;
19623;SDS011;9959;49.798;9.928;2023-12-20T12:35:04;6.32;;;1.60;;
19623;SDS011;9959;49.798;9.928;2023-12-20T12:37:35;5.75;;;2.05;;
19623;SDS011;9959;49.798;9.928;2023-12-20T12:40:07;9.52;;;2.25;;
19623;SDS011;9959;49.798;9.928;2023-12-20T12:42:37;9.18;;;2.25;;
19623;SDS011;9959;49.798;9.928;2023-12-20T12:45:04;6.35;;;1.75;;
19623;SDS011;9959;49.798;9.928;2023-12-20T12:47:32;6.65;;;1.80;;
19623;SDS011;9959;49.798;9.928;2023-12-20T12:49:59;10.80;;;2.03;;
19623;SDS011;9959;49.798;9.928;2023-12-20T12:52:27;7.57;;;1.75;;
19623;SDS011;9959;49.798;9.928;2023-12-20T12:54:57;8.32;;;1.92;;
19623;SDS011;9959;49.798;9.928;2023-12-20T12:57:24;10.00;;;1.80;;
19623;SDS011;9959;49.798;9.928;2023-12-20T12:59:52;9.05;;;2.00;;
19623;SDS011;9959;49.798;9.928;2023-12-20T13:02:20;10.50;;;2.47;;
19623;SDS011;9959;49.798;9.928;2023-12-20T13:04:46;6.10;;;2.00;;
19623;SDS011;9959;49.798;9.928;2023-12-20T13:07:14;8.43;;;2.10;;
19623;SDS011;9959;49.798;9.928;2023-12-20T13:09:44;11.05;;;2.38;;
19623;SDS011;9959;49.798;9.928;2023-12-20T13:12:11;8.25;;;1.90;;
19623;SDS011;9959;49.798;9.928;2023-12-20T13:14:38;9.18;;;2.55;;
19623;SDS011;9959;49.798;9.928;2023-12-20T13:17:05;8.68;;;2.58;;
19623;SDS011;9959;49.798;9.928;2023-12-20T13:19:33;6.43;;;2.08;;
19623;SDS011;9959;49.798;9.928;2023-12-20T13:22:01;8.18;;;2.15;;
19623;SDS011;9959;49.798;9.928;2023-12-20T13:24:28;12.63;;;2.72;;
19623;SDS011;9959;49.798;9.928;2023-12-20T13:26:55;11.13;;;2.25;;
19623;SDS011;9959;49.798;9.928;2023-12-20T13:29:23;9.45;;;2.40;;
19623;SDS011;9959;49.798;9.928;2023-12-20T13:31:54;4.85;;;2.15;;
19623;SDS011;9959;49.798;9.928;2023-12-20T13:34:21;11.02;;;2.30;;
19623;SDS011;9959;49.798;9.928;2023-12-20T13:36:49;6.07;;;1.92;;
19623;SDS011;9959;49.798;9.928;2023-12-20T13:39:17;4.55;;;2.03;;
19623;SDS011;9959;49.798;9.928;2023-12-20T13:41:44;4.60;;;2.17;;
19623;SDS011;9959;49.798;9.928;2023-12-20T13:44:11;9.10;;;2.30;;
19623;SDS011;9959;49.798;9.928;2023-12-20T13:46:39;8.60;;;2.30;;
19623;SDS011;9959;49.798;9.928;2023-12-20T13:49:07;11.10;;;2.50;;
19623;SDS011;9959;49.798;9.928;2023-12-20T13:51:34;10.25;;;2.33;;
19623;SDS011;9959;49.798;9.928;2023-12-20T13:54:01;9.23;;;2.80;;
19623;SDS011;9959;49.798;9.928;2023-12-20T13:56:28;8.50;;;2.88;;
19623;SDS011;9959;49.798;9.928;2023-12-20T13:58:59;6.93;;;2.50;;
19623;SDS011;9959;49.798;9.928;2023-12-20T14:01:26;7.07;;;2.53;;
19623;SDS011;9959;49.798;9.928;2023-12-20T14:03:55;6.63;;;2.30;;
19623;SDS011;9959;49.798;9.928;2023-12-20T14:06:25;3.45;;;2.35;;
19623;SDS011;9959;49.798;9.928;2023-12-20T14:08:52;8.23;;;2.10;;
19623;SDS011;9959;49.798;9.928;2023-12-20T14:11:19;9.05;;;2.63;;
19623;SDS011;9959;49.798;9.928;2023-12-20T14:13:48;7.03;;;2.63;;
19623;SDS011;9959;49.798;9.928;2023-12-20T14:16:15;8.35;;;2.50;;
19623;SDS011;9959;49.798;9.928;2023-12-20T14:18:43;7.05;;;2.25;;
19623;SDS011;9959;49.798;9.928;2023-12-20T14:21:10;8.63;;;2.25;;
19623;SDS011;9959;49.798;9.928;2023-12-20T14:23:37;9.18;;;2.60;;
19623;SDS011;9959;49.798;9.928;2023-12-20T14:26:04;6.43;;;2.70;;
19623;SDS011;9959;49.798;9.928;2023-12-20T14:28:31;7.82;;;2.72;;
19623;SDS011;9959;49.798;9.928;2023-12-20T14:30:59;9.55;;;2.55;;
19623;SDS011;9959;49.798;9.928;2023-12-20T14:33:28;6.78;;;2.60;;
19623;SDS011;9959;49.798;9.928;2023-12-20T14:36:04;8.90;;;2.47;;
19623;SDS011;9959;49.798;9.928;2023-12-20T14:38:32;10.25;;;3.33;;
19623;SDS011;9959;49.798;9.928;2023-12-20T14:40:59;8.50;;;2.60;;
19623;SDS011;9959;49.798;9.928;2023-12-20T14:43:28;9.00;;;3.05;;
19623;SDS011;9959;49.798;9.928;2023-12-20T14:45:55;5.78;;;2.78;;
19623;SDS011;9959;49.798;9.928;2023-12-20T14:48:22;8.40;;;2.40;;
19623;SDS011;9959;49.798;9.928;2023-12-20T14:50:49;7.97;;;2.47;;
19623;SDS011;9959;49.798;9.928;2023-12-20T14:53:17;5.78;;;2.75;;
19623;SDS011;9959;49.798;9.928;2023-12-20T14:55:48;12.15;;;3.00;;
19623;SDS011;9959;49.798;9.928;2023-12-20T14:58:17;8.57;;;2.40;;
19623;SDS011;9959;49.798;9.928;2023-12-20T15:00:44;6.30;;;2.67;;
19623;SDS011;9959;49.798;9.928;2023-12-20T15:03:11;8.93;;;2.58;;
19623;SDS011;9959;49.798;9.928;2023-12-20T15:05:38;4.95;;;2.20;;
19623;SDS011;9959;49.798;9.928;2023-12-20T15:08:06;4.07;;;2.60;;
19623;SDS011;9959;49.798;9.928;2023-12-20T15:10:33;4.45;;;2.25;;
19623;SDS011;9959;49.798;9.928;2023-12-20T15:13:00;8.50;;;2.60;;
19623;SDS011;9959;49.798;9.928;2023-12-20T15:15:27;7.65;;;2.85;;